Latest Weather Observations for Holsworthy

IDN60901

Issued at 10:41 pm EDT Thursday 5 March 2015 (issued every 10 minutes, with the page automatically refreshed every 10 minutes)

About weather observations | Map of Sydney area stations | Latest observations for Sydney area | Other Formats
Station Details ID: 066161 Name: HOLSWORTHY AERODROME AWS Lat: -33.99 Lon: 150.95 Height: 68.16 m
Data from the previous 72 hours. | See also: Recent months at Holsworthy
Date/Time
EDT
Tmp

°C
App
Tmp
°C
Dew
Point
°C
Rel
Hum
%
Delta-T

°C
Wind Press
QNH
hPa
Press
MSL
hPa
Rain
since
9 am
mm
Dir
 
Spd
km/h
Gust
km/h
Spd
kts
Gust
kts
05/10:30pm 16.8 15.5 11.1 69 3.1 WSW 9 32 5 17 1013.1 1012.9 0.0
05/10:00pm 17.3 16.7 11.6 69 3.1 W 6 7 3 4 1013.2 1013.0 0.0
05/09:30pm 17.1 16.0 10.7 66 3.4 SW 7 11 4 6 1012.9 1012.7 0.0
05/09:00pm 18.2 16.8 10.8 62 4.0 W 9 28 5 15 1012.7 1012.5 0.0
05/08:30pm 19.8 18.6 10.2 54 5.2 SE 7 15 4 8 1012.0 1011.8 0.0
05/08:00pm 18.7 17.0 10.0 57 4.7 SSE 9 15 5 8 1011.6 1011.4 0.0
05/07:30pm 19.3 17.2 9.8 54 5.1 SSE 11 19 6 10 1011.2 1011.0 0.0
05/07:00pm 20.1 17.0 8.8 48 6.0 SSE 15 26 8 14 1010.8 1010.6 0.0
05/06:30pm 20.7 16.6 8.0 44 6.6 SSE 19 35 10 19 1010.2 1010.0 0.0
05/06:00pm 21.1 15.9 8.7 45 6.6 SSE 26 39 14 21 1009.8 1009.6 0.0
05/05:30pm 21.3 15.4 8.9 45 6.6 SSE 30 50 16 27 1009.1 1008.9 0.0
05/05:03pm 21.5 15.3 9.4 46 6.5 SSE 32 50 17 27 1008.7 1008.5 0.0
05/05:00pm 21.7 15.6 9.6 46 6.5 SSE 32 46 17 25 1008.7 1008.5 0.0
05/04:44pm 21.8 15.5 9.7 46 6.5 SE 33 54 18 29 1008.9 1008.7 0.0
05/04:30pm 21.8 14.9 10.3 48 6.3 SSE 37 52 20 28 1008.8 1008.6 0.0
05/04:00pm 22.5 16.6 10.6 47 6.6 SE 32 50 17 27 1008.7 1008.5 0.0
05/03:31pm 22.7 17.8 11.4 49 6.3 SE 28 46 15 25 1008.7 1008.5 0.0
05/03:30pm 22.9 18.1 11.6 49 6.4 SE 28 41 15 22 1008.6 1008.4 0.0
05/03:00pm 22.8 18.3 13.8 57 5.3 SSE 30 48 16 26 1008.5 1008.3 0.0
05/02:33pm 23.4 19.7 14.9 59 5.1 SSE 28 46 15 25 1008.5 1008.3 0.0
05/02:30pm 23.6 19.9 15.1 59 5.1 SSE 28 39 15 21 1008.5 1008.3 0.0
05/02:00pm 23.5 19.7 14.8 58 5.2 SSE 28 39 15 21 1008.2 1008.0 0.0
05/01:30pm 26.1 22.3 12.5 42 7.9 SW 24 35 13 19 1008.3 1008.1 0.0
05/01:00pm 26.8 20.9 7.3 29 10.4 WSW 28 44 15 24 1007.9 1007.7 0.0
05/12:30pm 25.6 20.6 8.1 33 9.4 SW 24 39 13 21 1007.9 1007.7 0.0
05/12:00pm 25.3 21.1 9.6 37 8.7 WSW 22 33 12 18 1008.0 1007.8 0.0
05/11:30am 24.3 20.2 7.9 35 8.7 WSW 19 32 10 17 1008.1 1007.9 0.0
05/11:00am 23.6 21.7 9.2 40 7.8 SW 9 20 5 11 1008.0 1007.8 0.0
05/10:30am 24.0 21.1 9.6 40 7.9 SW 15 24 8 13 1007.6 1007.3 0.0
05/10:00am 23.5 20.1 9.1 40 7.8 W 17 32 9 17 1007.1 1006.8 0.0
05/09:30am 23.1 21.2 9.1 41 7.5 WNW 9 19 5 10 1006.5 1006.2 0.0
05/09:00am 22.2 19.1 7.2 38 7.8 W 13 20 7 11 1006.4 1006.1 0.0
05/08:30am 21.6 19.4 7.8 41 7.2 W 9 17 5 9 1006.1 1005.8 0.0
05/08:00am 20.5 18.5 8.8 47 6.2 W 9 13 5 7 1006.0 1005.7 0.0
05/07:30am 19.5 16.5 7.9 47 6.0 WSW 13 20 7 11 1005.9 1005.6 0.0
05/07:24am 19.4 15.8 8.4 49 5.7 WSW 17 22 9 12 1005.9 1005.6 0.0
05/07:00am 14.4 12.9 10.6 78 2.0 SW 9 17 5 9 1005.4 1005.1 0.0
05/06:35am 15.2 14.8 14.2 94 0.6 SW 9 13 5 7 1005.1 1004.8 0.0
05/06:33am 15.4 15.1 14.4 94 0.6 SW 9 13 5 7 1005.1 1004.8 0.0
05/06:30am 15.6 15.4 14.6 94 0.6 SW 9 13 5 7 1005.1 1004.8 0.0
05/06:00am 17.5 18.8 17.0 97 0.3 SW 6 7 3 4 1004.9 1004.5 0.0
05/05:30am 16.8 17.7 16.0 95 0.5 WSW 6 6 3 3 1004.6 1004.3 0.0
05/05:00am 16.8 17.7 16.0 95 0.5 WSW 6 7 3 4 1004.6 1004.3 0.0
05/04:58am 16.8 17.7 16.0 95 0.5 WSW 6 7 3 4 1004.6 1004.3 0.0
05/04:30am 17.4 19.3 16.6 95 0.5 WSW 2 6 1 3 1004.8 1004.5 0.0
05/04:00am 18.1 19.6 17.5 96 0.4 WSW 6 7 3 4 1005.2 1004.9 0.0
05/03:30am 18.5 19.5 17.8 96 0.4 SW 9 13 5 7 1005.6 1005.3 0.0
05/03:00am 18.6 19.6 17.8 95 0.5 WSW 9 13 5 7 1005.8 1005.5 0.0
05/02:30am 19.0 20.6 18.2 95 0.5 WSW 7 11 4 6 1006.2 1005.9 0.0
05/02:00am 18.9 21.6 17.7 93 0.7 CALM 0 6 0 3 1006.7 1006.4 0.0
05/01:30am 19.5 22.4 18.3 93 0.7 CALM 0 0 0 0 1007.2 1006.9 0.0
05/01:00am 19.9 23.0 18.6 92 0.8 CALM 0 0 0 0 1007.7 1007.4 0.0
05/12:30am 20.2 23.4 18.9 92 0.8 CALM 0 0 0 0 1007.9 1007.7 0.0
05/12:00am 20.5 23.8 19.0 91 0.9 CALM 0 9 0 5 1008.2 1008.0 0.0
 
Date/Time
EDT
Tmp

°C
App
Tmp
°C
Dew
Point
°C
Rel
Hum
%
Delta-T

°C
Wind Press
QNH
hPa
Press
MSL
hPa
Rain
since
9 am
mm
Dir
 
Spd
km/h
Gust
km/h
Spd
kts
Gust
kts
04/11:30pm 21.1 23.5 19.7 92 0.9 SSW 6 7 3 4 1008.6 1008.4 0.0
04/11:00pm 20.9 23.1 19.2 90 1.1 SW 6 7 3 4 1008.9 1008.7 0.0
04/10:30pm 21.8 24.3 19.9 89 1.2 ESE 6 7 3 4 1009.0 1008.8 0.0
04/10:00pm 22.1 24.5 20.0 88 1.4 SSE 7 7 4 4 1009.1 1008.9 0.0
04/09:30pm 22.4 25.0 20.1 87 1.5 SSE 6 7 3 4 1009.2 1009.0 0.0
04/09:00pm 22.7 25.1 20.0 85 1.7 SE 7 9 4 5 1008.9 1008.7 0.0
04/08:30pm 23.2 25.0 20.3 84 1.9 ESE 11 15 6 8 1008.6 1008.4 0.0
04/08:00pm 23.6 25.3 20.1 81 2.3 ESE 11 15 6 8 1008.5 1008.3 0.0
04/07:30pm 24.3 25.9 20.0 77 2.8 ESE 11 15 6 8 1008.3 1008.1 0.0
04/07:00pm 25.1 27.1 20.8 77 2.8 ESE 11 15 6 8 1008.2 1008.0 0.0
04/06:30pm 25.7 26.9 20.7 74 3.3 ESE 15 20 8 11 1008.1 1007.9 0.0
04/06:00pm 26.2 26.8 20.3 70 3.9 E 17 26 9 14 1008.3 1008.1 0.0
04/05:30pm 26.7 26.6 19.6 65 4.6 E 19 24 10 13 1008.3 1008.1 0.0
04/05:00pm 27.6 28.3 20.4 65 4.7 E 17 22 9 12 1008.5 1008.3 0.0
04/04:30pm 28.0 28.8 19.8 61 5.4 E 15 20 8 11 1008.6 1008.4 0.0
04/04:00pm 28.0 28.8 19.8 61 5.4 ENE 15 20 8 11 1009.1 1008.9 0.0
04/03:30pm 28.4 29.3 20.1 60 5.5 ENE 15 22 8 12 1009.3 1009.1 0.0
04/03:00pm 28.2 28.5 19.7 60 5.6 ESE 17 26 9 14 1009.8 1009.6 0.0
04/02:30pm 28.8 31.0 19.7 58 6.0 ENE 7 11 4 6 1010.3 1010.1 0.0
04/02:00pm 27.6 28.8 19.1 59 5.5 ENE 11 17 6 9 1010.7 1010.5 0.0
04/01:30pm 27.3 28.2 18.3 58 5.7 ENE 11 15 6 8 1011.2 1011.0 0.0
04/01:00pm 27.4 29.2 19.5 62 5.1 NE 9 13 5 7 1011.6 1011.4 0.0
04/12:30pm 25.7 27.6 18.9 66 4.4 NNW 7 11 4 6 1012.3 1012.1 0.0
04/12:00pm 26.8 29.1 19.9 66 4.5 WSW 7 11 4 6 1012.7 1012.5 0.0
04/11:30am 25.2 27.2 19.1 69 3.9 E 7 9 4 5 1013.3 1013.1 0.0
04/11:00am 24.5 26.7 19.1 72 3.5 E 6 9 3 5 1013.7 1013.5 0.0
04/10:30am 24.9 27.0 20.2 75 3.1 SSE 9 13 5 7 1014.0 1013.8 0.0
04/10:00am 24.2 26.7 19.9 77 2.8 SSW 6 11 3 6 1013.9 1013.7 0.0
04/09:30am 23.2 25.1 18.5 75 3.0 SE 6 9 3 5 1013.9 1013.7 0.0
04/09:00am 23.0 25.2 18.3 75 3.0 S 4 7 2 4 1013.8 1013.6 -
04/08:30am 21.8 23.4 18.2 80 2.3 WSW 7 9 4 5 1013.6 1013.4 -
04/08:00am 20.5 22.2 18.1 86 1.5 W 6 9 3 5 1013.4 1013.2 -
04/07:30am 19.8 21.2 17.9 89 1.2 WSW 7 9 4 5 1013.2 1013.0 -
04/07:00am 19.7 21.2 17.5 87 1.3 WNW 6 6 3 3 1012.9 1012.7 -
04/06:30am 20.2 21.2 17.8 86 1.5 SSE 9 13 5 7 1012.7 1012.5 -
04/06:00am 20.5 20.8 17.9 85 1.6 SSE 13 19 7 10 1012.6 1012.4 -
04/05:30am 20.6 20.6 18.0 85 1.6 SSE 15 17 8 9 1012.6 1012.4 -
04/05:00am 20.9 21.2 17.9 83 1.9 SSE 13 17 7 9 1012.7 1012.5 -
04/04:30am 20.9 22.0 18.1 84 1.7 SSE 9 13 5 7 1012.8 1012.6 -
04/04:00am 20.9 22.0 18.1 84 1.7 SSE 9 13 5 7 1012.8 1012.6 -
04/03:30am 20.9 22.0 18.1 84 1.7 SSE 9 13 5 7 1012.9 1012.7 -
04/03:00am 20.9 21.6 17.9 83 1.9 SSE 11 17 6 9 1013.3 1013.1 0.0
04/02:30am 21.0 21.3 17.8 82 2.0 SSE 13 17 7 9 1013.5 1013.3 -
04/02:00am 20.9 21.3 18.1 84 1.7 SSE 13 17 7 9 1013.7 1013.5 -
04/01:30am 21.0 22.2 18.2 84 1.7 SSE 9 13 5 7 1014.0 1013.8 -
04/01:00am 21.1 22.3 18.3 84 1.7 SSE 9 11 5 6 1014.2 1014.0 -
04/12:30am 21.0 21.8 18.2 84 1.7 SSE 11 13 6 7 1014.4 1014.1 -
04/12:00am 21.3 21.6 17.9 81 2.1 SSE 13 26 7 14 1014.5 1014.2 -
 
Date/Time
EDT
Tmp

°C
App
Tmp
°C
Dew
Point
°C
Rel
Hum
%
Delta-T

°C
Wind Press
QNH
hPa
Press
MSL
hPa
Rain
since
9 am
mm
Dir
 
Spd
km/h
Gust
km/h
Spd
kts
Gust
kts
03/11:30pm 21.5 22.7 18.3 82 2.0 S 9 11 5 6 1014.9 1014.6 -
03/11:00pm 21.5 22.6 17.9 80 2.2 SSE 9 11 5 6 1014.9 1014.6 -
03/10:30pm 21.9 23.4 17.7 77 2.6 SSE 6 7 3 4 1014.9 1014.6 -
03/10:00pm 22.3 23.5 17.4 74 3.0 SE 7 26 4 14 1015.0 1014.7 -
03/09:30pm 22.3 23.8 17.7 75 2.9 E 6 7 3 4 1015.0 1014.7 -
03/09:00pm 22.5 23.3 17.4 73 3.2 SE 9 11 5 6 1014.7 1014.4 -
03/08:30pm 22.3 23.1 17.4 74 3.0 SSE 9 9 5 5 1014.6 1014.3 -
03/08:00pm 22.7 24.0 17.2 71 3.4 E 6 9 3 5 1014.0 1013.8 -
03/07:30pm 22.9 23.2 16.9 69 3.7 ESE 11 15 6 8 1013.6 1013.4 -
03/07:00pm 23.0 22.7 16.5 67 4.0 E 13 20 7 11 1013.5 1013.3 -
03/06:30pm 23.3 23.5 16.8 67 4.0 E 11 15 6 8 1013.4 1013.2 -
03/06:00pm 23.4 23.5 17.4 69 3.7 ESE 13 17 7 9 1013.2 1013.0 -
03/05:30pm 23.4 23.2 16.7 66 4.1 E 13 19 7 10 1012.9 1012.7 -
03/05:00pm 23.5 22.6 16.8 66 4.1 ESE 17 20 9 11 1012.6 1012.4 -
03/04:30pm 23.8 22.7 16.3 63 4.6 ESE 17 24 9 13 1012.7 1012.5 -
03/03:30pm 26.9 25.4 16.8 54 6.3 E 20 28 11 15 1012.6 1012.4 0.0
03/03:00pm 27.9 26.5 17.1 51 6.8 E 20 30 11 16 1012.7 1012.5 0.0
03/02:30pm 28.5 27.3 16.1 47 7.7 E 17 24 9 13 1012.9 1012.7 0.0
03/02:00pm 29.2 29.0 15.7 44 8.3 NE 11 17 6 9 1012.9 1012.7 0.0
03/01:30pm 28.1 27.9 14.7 44 8.1 N 9 15 5 8 1013.5 1013.3 0.0
03/01:00pm 27.3 26.6 14.3 45 7.8 NNE 11 17 6 9 1014.0 1013.8 0.0
03/12:30pm 26.3 25.7 14.7 48 7.0 ENE 11 17 6 9 1014.6 1014.3 0.0
03/12:00pm 25.4 24.5 13.6 48 6.9 N 11 17 6 9 1015.5 1015.2 0.0
03/11:30am 24.7 23.4 13.6 50 6.5 N 13 20 7 11 1015.8 1015.5 0.0
03/11:00am 24.0 22.1 14.1 54 5.8 N 17 26 9 14 1016.0 1015.7 0.0
03/10:30am 23.1 21.6 14.1 57 5.3 N 15 24 8 13 1016.2 1015.9 0.0
03/10:00am 22.1 21.9 14.7 63 4.4 NNW 9 15 5 8 1016.4 1016.1 0.0
03/09:30am 20.5 20.5 15.3 72 3.1 NNW 9 13 5 7 1016.5 1016.2 0.0
03/09:00am 19.0 18.8 14.7 76 2.5 NW 9 13 5 7 1016.4 1016.1 0.0
03/08:30am 17.6 17.9 14.5 82 1.8 W 6 9 3 5 1016.0 1015.7 0.0
03/08:00am 16.6 16.8 14.2 86 1.4 W 6 7 3 4 1015.9 1015.6 0.0
03/07:30am 15.4 15.7 14.4 94 0.6 WSW 6 7 3 4 1015.7 1015.4 0.0
03/07:00am 14.0 13.6 12.9 93 0.6 WSW 7 9 4 5 1015.6 1015.3 0.0
03/06:30am 14.0 14.8 12.7 92 0.7 CALM 0 0 0 0 1015.4 1015.1 0.0
03/06:00am 14.7 15.8 13.4 92 0.7 CALM 0 0 0 0 1015.2 1014.9 0.0
03/05:30am 14.7 15.8 13.4 92 0.7 CALM 0 0 0 0 1015.2 1014.9 0.0
03/05:00am 14.9 16.0 13.4 91 0.8 CALM 0 0 0 0 1015.3 1015.0 0.0
03/04:30am 15.3 16.5 13.7 90 0.9 CALM 0 0 0 0 1015.3 1015.0 0.0
03/04:00am 15.6 16.4 13.8 89 1.0 SE 2 6 1 3 1015.4 1015.1 0.0
03/03:30am 15.9 16.1 14.1 89 1.0 SE 6 7 3 4 1015.7 1015.4 0.0
03/03:00am 16.2 16.2 13.7 85 1.4 SE 6 6 3 3 1016.0 1015.7 0.0
03/02:30am 16.9 16.8 14.0 83 1.7 SE 7 7 4 4 1016.3 1016.0 0.0
03/02:00am 17.7 18.0 14.4 81 1.9 SE 6 7 3 4 1016.7 1016.4 0.0
03/01:30am 18.1 19.6 14.6 80 2.0 CALM 0 0 0 0 1017.2 1016.9 0.0
03/01:00am 18.3 20.0 15.2 82 1.8 CALM 0 0 0 0 1017.5 1017.2 0.0
03/12:30am 18.2 19.7 14.7 80 2.0 CALM 0 0 0 0 1017.9 1017.6 0.0
03/12:00am 18.1 19.3 14.8 81 1.9 ESE 2 4 1 2 1018.1 1017.8 0.0
 
Date/Time
EDT
Tmp

°C
App
Tmp
°C
Dew
Point
°C
Rel
Hum
%
Delta-T

°C
Wind Press
QNH
hPa
Press
MSL
hPa
Rain
since
9 am
mm
Dir
 
Spd
km/h
Gust
km/h
Spd
kts
Gust
kts
02/11:30pm 17.7 18.1 14.8 83 1.7 ESE 6 7 3 4 1018.1 1017.8 0.0
02/11:00pm 17.3 18.6 14.0 81 1.9 CALM 0 4 0 2 1018.0 1017.7 0.0

Latest Capital City Observations: Canberra | Sydney | Melbourne | Brisbane | Adelaide | Perth | Hobart | Darwin

Other Formats:

Comma delimited format used in spreadsheet applications
http://www.bom.gov.au/fwo/IDN60901/IDN60901.95761.axf

JavaScript Object Notation format (JSON) in row-major order
http://www.bom.gov.au/fwo/IDN60901/IDN60901.95761.json